Time;durP1;ratioP1;P1;durP2;ratioP2;P2;SDS_P1;SDS_P2;PMS_P1;PMS_P2;Temp;Humidity;BMP_temperature;BMP_pressure;BME280_temperature;BME280_humidity;BME280_pressure;Samples;Min_cycle;Max_cycle;Signal;HPM_P1;HPM_P2
2020/12/28 00:00:35;;;;;;;1.23;0.93;;;7.60;99.90;;;;;;4957590;29;20460;-91
2020/12/28 00:03:01;;;;;;;0.90;0.60;;;7.50;99.90;;;;;;4957110;29;20504;-86
2020/12/28 00:05:28;;;;;;;0.87;0.60;;;7.40;99.90;;;;;;4957399;29;20449;-85
2020/12/28 00:07:54;;;;;;;0.80;0.50;;;7.50;99.90;;;;;;4957028;29;20457;-86
2020/12/28 00:13:42;;;;;;;1.33;0.80;;;7.40;99.90;;;;;;4957099;29;20388;-86
2020/12/28 00:16:12;;;;;;;2.03;1.00;;;7.30;99.90;;;;;;4957410;29;20453;-87
2020/12/28 00:18:38;;;;;;;1.00;0.90;;;7.30;99.90;;;;;;4957177;29;20535;-87
2020/12/28 00:21:04;;;;;;;1.40;0.80;;;7.20;99.90;;;;;;4956777;29;21079;-86
2020/12/28 00:26:52;;;;;;;0.93;0.73;;;7.20;99.90;;;;;;4956962;29;20383;-86
2020/12/28 00:32:41;;;;;;;1.43;0.80;;;7.20;99.90;;;;;;4956712;29;20508;-86
2020/12/28 00:35:10;;;;;;;0.80;0.70;;;7.10;99.90;;;;;;4956915;29;20449;-86
2020/12/28 00:37:36;;;;;;;2.10;0.90;;;7.10;99.90;;;;;;4957426;29;20455;-85
2020/12/28 00:40:05;;;;;;;0.97;0.87;;;7.10;99.90;;;;;;4957070;29;20519;-86
2020/12/28 00:42:32;;;;;;;1.03;0.93;;;7.10;99.90;;;;;;4956471;29;20488;-85
2020/12/28 00:44:58;;;;;;;1.03;0.87;;;7.10;99.90;;;;;;4956514;29;20459;-87
2020/12/28 00:47:24;;;;;;;0.90;0.80;;;7.10;99.90;;;;;;4956630;29;20539;-86
2020/12/28 00:49:51;;;;;;;2.13;1.20;;;7.10;99.90;;;;;;4956457;29;20496;-86
2020/12/28 00:52:17;;;;;;;1.43;1.00;;;7.00;99.90;;;;;;4956650;28;20480;-86
2020/12/28 00:54:43;;;;;;;1.90;0.90;;;7.00;99.90;;;;;;4956577;29;20504;-86
2020/12/28 00:57:09;;;;;;;1.37;0.93;;;7.00;99.90;;;;;;4956290;29;20445;-87
2020/12/28 00:59:36;;;;;;;1.53;0.80;;;7.00;99.90;;;;;;4956419;29;20485;-86
2020/12/28 01:02:02;;;;;;;2.17;1.47;;;7.00;99.90;;;;;;4956134;29;20990;-85
2020/12/28 01:04:28;;;;;;;4.97;1.13;;;7.00;99.90;;;;;;4956335;29;20820;-85
2020/12/28 01:06:55;;;;;;;2.40;1.13;;;7.00;99.90;;;;;;4956948;28;20453;-86
2020/12/28 01:09:21;;;;;;;3.13;1.00;;;7.00;99.90;;;;;;4955652;29;20520;-86
2020/12/28 01:11:47;;;;;;;0.93;0.87;;;7.00;99.90;;;;;;4956931;29;20986;-86
2020/12/28 01:14:14;;;;;;;1.00;0.70;;;7.00;99.90;;;;;;4956225;29;20481;-86
2020/12/28 01:16:43;;;;;;;0.97;0.77;;;7.00;99.90;;;;;;4955875;29;20445;-86
2020/12/28 01:19:10;;;;;;;2.10;1.00;;;7.00;99.90;;;;;;4956077;29;20477;-86
2020/12/28 01:21:36;;;;;;;1.20;0.97;;;6.90;99.90;;;;;;4956081;29;20475;-86
2020/12/28 01:24:03;;;;;;;1.37;1.10;;;6.90;99.90;;;;;;4955989;29;20449;-87
2020/12/28 01:26:29;;;;;;;1.70;1.10;;;6.90;99.90;;;;;;4955784;29;20456;-87
2020/12/28 01:28:55;;;;;;;0.80;0.67;;;6.80;99.90;;;;;;4956013;29;20472;-86
2020/12/28 01:31:22;;;;;;;1.20;0.90;;;6.90;99.90;;;;;;4955982;29;20472;-86
2020/12/28 01:33:48;;;;;;;1.60;0.90;;;6.90;99.90;;;;;;4955617;29;20478;-87
2020/12/28 01:36:14;;;;;;;1.40;0.90;;;6.80;99.90;;;;;;4955728;29;20528;-87
2020/12/28 01:38:40;;;;;;;1.00;0.87;;;6.90;99.90;;;;;;4955698;29;20477;-87
2020/12/28 01:41:07;;;;;;;1.83;0.90;;;6.90;99.90;;;;;;4955477;29;20485;-87
2020/12/28 01:43:34;;;;;;;0.80;0.80;;;6.90;99.90;;;;;;4955746;29;20808;-87
2020/12/28 01:46:01;;;;;;;1.23;1.13;;;6.90;99.90;;;;;;4955667;29;20463;-86
2020/12/28 01:48:29;;;;;;;1.10;1.00;;;6.90;99.90;;;;;;4955302;29;20531;-86
2020/12/28 01:50:56;;;;;;;1.43;0.80;;;6.90;99.90;;;;;;4955459;29;20516;-86
2020/12/28 01:53:23;;;;;;;1.40;0.90;;;6.90;99.90;;;;;;4955552;29;20449;-87
2020/12/28 01:55:54;;;;;;;1.53;1.20;;;6.90;99.90;;;;;;4955201;29;20429;-87
2020/12/28 01:58:21;;;;;;;0.93;0.80;;;7.00;99.90;;;;;;4955082;29;20990;-87
2020/12/28 02:00:48;;;;;;;1.23;0.73;;;6.90;99.90;;;;;;4955019;29;20433;-86
2020/12/28 02:03:15;;;;;;;0.93;0.70;;;7.00;99.90;;;;;;4955353;29;20471;-85
2020/12/28 02:05:41;;;;;;;1.17;0.73;;;6.90;99.90;;;;;;4955313;29;20461;-86
2020/12/28 02:08:08;;;;;;;0.97;0.87;;;7.00;99.90;;;;;;4955273;29;20437;-86
2020/12/28 02:10:34;;;;;;;1.20;0.80;;;7.00;99.90;;;;;;4955317;29;20452;-86
2020/12/28 02:13:00;;;;;;;0.90;0.90;;;7.00;99.90;;;;;;4955294;29;20480;-86
2020/12/28 02:15:27;;;;;;;1.60;0.70;;;7.00;99.90;;;;;;4955456;29;20463;-88
2020/12/28 02:17:53;;;;;;;0.70;0.70;;;6.90;99.90;;;;;;4960349;29;20484;-87
2020/12/28 02:20:20;;;;;;;0.83;0.67;;;6.90;99.90;;;;;;4959229;28;20468;-86
2020/12/28 02:22:47;;;;;;;1.63;0.80;;;6.80;99.90;;;;;;4955340;29;20473;-86
2020/12/28 02:25:13;;;;;;;1.13;0.80;;;6.80;99.90;;;;;;4954886;29;20437;-86
2020/12/28 02:27:39;;;;;;;1.60;1.00;;;6.70;99.90;;;;;;4954830;29;20444;-86
2020/12/28 02:30:05;;;;;;;1.03;0.87;;;6.50;99.90;;;;;;4954927;29;20946;-86
2020/12/28 02:32:32;;;;;;;0.97;0.70;;;6.50;99.90;;;;;;4954982;29;20499;-86
2020/12/28 02:34:58;;;;;;;2.43;1.27;;;6.40;99.90;;;;;;4955893;29;20461;-86
2020/12/28 02:37:25;;;;;;;0.90;0.77;;;6.30;99.90;;;;;;4954900;29;20460;-87
2020/12/28 02:39:57;;;;;;;0.67;0.67;;;6.30;99.90;;;;;;4954681;29;20482;-87
2020/12/28 02:42:23;;;;;;;1.03;0.90;;;6.30;99.90;;;;;;4955117;29;20531;-87
2020/12/28 02:44:49;;;;;;;0.90;0.80;;;6.30;99.90;;;;;;4954932;29;20433;-87
2020/12/28 02:47:16;;;;;;;1.77;0.90;;;6.30;99.90;;;;;;4955207;29;20785;-86
2020/12/28 02:49:45;;;;;;;0.90;0.80;;;6.20;99.90;;;;;;4954927;29;20480;-86
2020/12/28 02:52:11;;;;;;;2.10;0.90;;;6.20;99.90;;;;;;4954601;29;20552;-87
2020/12/28 02:54:37;;;;;;;1.10;0.70;;;6.20;99.90;;;;;;4954776;29;20527;-86
2020/12/28 02:57:04;;;;;;;0.97;0.80;;;6.20;99.90;;;;;;4954937;29;20453;-86
2020/12/28 02:59:30;;;;;;;2.20;0.93;;;6.20;99.90;;;;;;4954722;29;20484;-87
2020/12/28 03:01:56;;;;;;;1.63;0.63;;;6.10;99.90;;;;;;4954026;29;20477;-87
2020/12/28 03:04:23;;;;;;;1.77;1.00;;;6.10;99.90;;;;;;4953320;29;20453;-86
2020/12/28 03:06:49;;;;;;;1.40;1.00;;;6.00;99.90;;;;;;4953319;29;20847;-86
2020/12/28 03:09:15;;;;;;;2.80;0.67;;;6.00;99.90;;;;;;4953487;29;20818;-86
2020/12/28 03:11:41;;;;;;;1.00;0.70;;;6.00;99.90;;;;;;4953809;29;20468;-86
2020/12/28 03:14:08;;;;;;;1.57;0.50;;;6.00;99.90;;;;;;4953551;29;20460;-88
2020/12/28 03:16:37;;;;;;;1.07;0.80;;;6.00;99.90;;;;;;4953502;29;20463;-87
2020/12/28 03:19:05;;;;;;;0.83;0.70;;;6.00;99.90;;;;;;4953548;29;20491;-87
2020/12/28 03:21:37;;;;;;;0.90;0.50;;;6.00;99.90;;;;;;4953145;29;20504;-86
2020/12/28 03:24:05;;;;;;;1.10;0.80;;;6.00;99.90;;;;;;4953652;29;20457;-87
2020/12/28 03:26:37;;;;;;;0.97;0.80;;;6.00;99.90;;;;;;4953105;29;20478;-87
2020/12/28 03:29:05;;;;;;;2.80;0.67;;;6.00;99.90;;;;;;4953662;29;20453;-86
2020/12/28 03:31:32;;;;;;;5.30;1.30;;;6.00;99.90;;;;;;4954579;28;20469;-86
2020/12/28 03:33:59;;;;;;;1.40;0.70;;;6.00;99.90;;;;;;4956919;29;20988;-86
2020/12/28 03:36:25;;;;;;;3.40;0.70;;;5.90;99.90;;;;;;4956797;29;20467;-87
2020/12/28 03:38:51;;;;;;;1.00;0.50;;;5.90;99.90;;;;;;4956747;29;20491;-87
2020/12/28 03:41:17;;;;;;;1.50;0.90;;;5.90;99.90;;;;;;4956614;29;20481;-87
2020/12/28 03:43:43;;;;;;;1.00;0.70;;;5.90;99.90;;;;;;4956740;29;20499;-86
2020/12/28 03:46:10;;;;;;;1.23;1.00;;;5.90;99.90;;;;;;4956422;29;20460;-87
2020/12/28 03:48:37;;;;;;;1.00;0.90;;;5.90;99.90;;;;;;4956813;29;20452;-87
2020/12/28 03:51:03;;;;;;;1.40;0.60;;;5.90;99.90;;;;;;4956566;29;20947;-88
2020/12/28 03:53:29;;;;;;;0.70;0.60;;;5.80;99.90;;;;;;4956446;29;20461;-87
2020/12/28 03:55:55;;;;;;;1.30;0.90;;;5.80;99.90;;;;;;4956558;29;20508;-87
2020/12/28 03:58:22;;;;;;;0.90;0.80;;;6.00;99.90;;;;;;4956418;29;20476;-87
2020/12/28 04:00:48;;;;;;;0.90;0.60;;;5.90;99.90;;;;;;4956635;29;20547;-87
2020/12/28 04:03:19;;;;;;;1.10;0.67;;;5.80;99.90;;;;;;4956357;29;20456;-87
2020/12/28 04:05:46;;;;;;;2.10;0.67;;;5.70;99.90;;;;;;4956272;29;20449;-87
2020/12/28 04:08:12;;;;;;;4.43;1.07;;;5.70;99.90;;;;;;4956034;29;20945;-87
2020/12/28 04:10:39;;;;;;;1.50;0.63;;;5.60;99.90;;;;;;4956195;29;20830;-88
2020/12/28 04:13:05;;;;;;;1.10;0.90;;;5.70;99.90;;;;;;4955981;29;20477;-88
2020/12/28 04:15:31;;;;;;;1.67;0.70;;;5.70;99.90;;;;;;4955676;29;20455;-87
2020/12/28 04:17:57;;;;;;;2.60;0.90;;;5.70;99.90;;;;;;4955960;29;20453;-87
2020/12/28 04:20:23;;;;;;;1.00;0.90;;;5.70;99.90;;;;;;4955955;29;20437;-88
2020/12/28 04:22:50;;;;;;;1.80;0.70;;;5.70;99.90;;;;;;4955877;29;20502;-87
2020/12/28 04:25:17;;;;;;;3.60;0.70;;;5.60;99.90;;;;;;4955552;29;20490;-87
2020/12/28 04:27:43;;;;;;;1.40;0.90;;;5.50;99.90;;;;;;4955678;29;20460;-87
2020/12/28 04:30:10;;;;;;;0.90;0.67;;;5.50;99.90;;;;;;4955871;29;20461;-87
2020/12/28 04:32:36;;;;;;;0.93;0.70;;;5.70;99.90;;;;;;4956135;29;20469;-87
2020/12/28 04:35:03;;;;;;;4.53;0.60;;;5.60;99.90;;;;;;4955499;29;20461;-87
2020/12/28 04:37:29;;;;;;;1.53;0.80;;;5.70;99.90;;;;;;4958882;29;20456;-87
2020/12/28 04:39:56;;;;;;;1.40;0.80;;;5.80;99.90;;;;;;4959654;29;20489;-87
2020/12/28 04:42:24;;;;;;;1.27;0.60;;;5.80;99.90;;;;;;4954939;28;20481;-87
2020/12/28 04:44:50;;;;;;;0.60;0.60;;;5.80;99.90;;;;;;4955344;29;20457;-87
2020/12/28 04:47:17;;;;;;;0.90;0.60;;;5.90;99.90;;;;;;4955381;29;20449;-87
2020/12/28 04:49:44;;;;;;;1.00;0.70;;;5.90;99.90;;;;;;4955473;29;20457;-87
2020/12/28 04:52:11;;;;;;;1.07;0.70;;;5.80;99.90;;;;;;4955135;28;20473;-87
2020/12/28 04:54:38;;;;;;;0.90;0.80;;;5.60;99.90;;;;;;4955026;29;20438;-87
2020/12/28 04:57:05;;;;;;;1.10;0.93;;;5.60;99.90;;;;;;4955260;29;20524;-87
2020/12/28 04:59:31;;;;;;;1.07;0.93;;;5.50;99.90;;;;;;4955041;29;20477;-87
2020/12/28 05:01:58;;;;;;;1.10;1.00;;;5.50;99.90;;;;;;4955076;29;20457;-87
2020/12/28 05:04:24;;;;;;;4.80;1.30;;;5.60;99.90;;;;;;4955089;29;20970;-87
2020/12/28 05:06:58;;;;;;;2.13;1.00;;;5.60;99.90;;;;;;4954994;29;21014;-88
2020/12/28 05:09:24;;;;;;;1.00;0.90;;;5.60;99.90;;;;;;4954877;29;20459;-88
2020/12/28 05:11:55;;;;;;;1.23;1.10;;;5.60;99.90;;;;;;4955004;29;20476;-88
2020/12/28 05:14:23;;;;;;;0.80;0.70;;;5.60;99.90;;;;;;4954884;29;20461;-87
2020/12/28 05:16:49;;;;;;;1.03;0.93;;;5.70;99.90;;;;;;4954894;28;20453;-87
2020/12/28 05:19:17;;;;;;;0.80;0.70;;;5.70;99.90;;;;;;4954650;29;20489;-87
2020/12/28 05:21:44;;;;;;;1.00;0.90;;;5.80;99.90;;;;;;4954832;29;20547;-87
2020/12/28 05:24:14;;;;;;;1.27;1.00;;;5.90;99.90;;;;;;4954652;29;20433;-87
2020/12/28 05:26:44;;;;;;;2.33;1.63;;;5.80;99.90;;;;;;4954421;29;20453;-87
2020/12/28 05:29:13;;;;;;;2.80;1.50;;;5.80;99.90;;;;;;4954640;28;20453;-87
2020/12/28 05:31:41;;;;;;;3.93;1.20;;;5.80;99.90;;;;;;4954569;29;20564;-87
2020/12/28 05:34:12;;;;;;;2.73;1.33;;;5.90;99.90;;;;;;4954741;29;20505;-87
2020/12/28 05:36:39;;;;;;;1.80;1.70;;;5.90;99.90;;;;;;4954168;29;20473;-88
2020/12/28 05:39:05;;;;;;;1.50;1.40;;;5.90;99.90;;;;;;4954319;29;20480;-87
2020/12/28 05:41:31;;;;;;;1.97;0.80;;;5.90;99.90;;;;;;4954273;29;20475;-87
2020/12/28 05:44:08;;;;;;;2.23;1.70;;;6.00;99.90;;;;;;4954284;29;20453;-87
2020/12/28 05:46:35;;;;;;;2.57;1.10;;;5.90;99.90;;;;;;4954014;29;20452;-86
2020/12/28 05:49:06;;;;;;;1.60;0.90;;;5.90;99.90;;;;;;4954239;29;20934;-86
2020/12/28 05:51:35;;;;;;;3.17;1.10;;;5.80;99.90;;;;;;4954649;29;20907;-86
2020/12/28 05:54:08;;;;;;;1.37;1.00;;;5.80;99.90;;;;;;4952862;28;20563;-86
2020/12/28 05:56:35;;;;;;;2.63;0.90;;;5.90;99.90;;;;;;4953366;29;20536;-86
2020/12/28 05:59:03;;;;;;;3.20;1.20;;;5.90;99.90;;;;;;4954124;29;20572;-86
2020/12/28 06:01:36;;;;;;;1.73;0.83;;;6.00;99.90;;;;;;4954039;28;20924;-87
2020/12/28 06:04:03;;;;;;;1.30;0.70;;;6.10;99.90;;;;;;4954323;29;20465;-86
2020/12/28 06:06:30;;;;;;;1.20;0.70;;;6.10;99.90;;;;;;4953864;29;20946;-87
2020/12/28 06:08:57;;;;;;;0.87;0.70;;;6.00;99.90;;;;;;4954089;29;20453;-86
2020/12/28 06:11:23;;;;;;;0.80;0.70;;;6.10;99.90;;;;;;4953949;29;20842;-86
2020/12/28 06:13:49;;;;;;;1.00;0.90;;;6.10;99.90;;;;;;4953983;29;20453;-87
2020/12/28 06:16:22;;;;;;;2.60;0.60;;;6.00;99.90;;;;;;4953465;29;20448;-87
2020/12/28 06:18:53;;;;;;;1.03;0.67;;;6.10;99.90;;;;;;4953981;29;20527;-86
2020/12/28 06:21:20;;;;;;;0.83;0.70;;;6.00;99.90;;;;;;4953580;29;20473;-86
2020/12/28 06:23:49;;;;;;;1.77;0.80;;;6.00;99.90;;;;;;4953860;29;20441;-88
2020/12/28 06:26:19;;;;;;;1.00;0.80;;;6.10;99.90;;;;;;4953635;29;20828;-86
2020/12/28 06:28:45;;;;;;;1.90;1.33;;;6.10;99.90;;;;;;4953758;29;20441;-87
2020/12/28 06:31:12;;;;;;;3.50;1.20;;;6.00;99.90;;;;;;4953552;28;20555;-86
2020/12/28 06:33:48;;;;;;;1.30;0.90;;;6.00;99.90;;;;;;4953675;29;20800;-86
2020/12/28 06:36:15;;;;;;;1.07;0.70;;;6.00;99.90;;;;;;4953205;29;20462;-87
2020/12/28 06:38:42;;;;;;;3.13;1.23;;;6.00;99.90;;;;;;4953482;29;21044;-87
2020/12/28 06:41:09;;;;;;;2.03;0.80;;;6.00;99.90;;;;;;4953397;29;20476;-87
2020/12/28 06:43:39;;;;;;;1.57;0.90;;;6.00;99.90;;;;;;4953442;29;20484;-87
2020/12/28 06:46:06;;;;;;;3.40;0.87;;;5.90;99.90;;;;;;4953912;29;20946;-87
2020/12/28 06:48:32;;;;;;;1.77;0.77;;;6.00;99.90;;;;;;4953420;29;20954;-87
2020/12/28 06:51:06;;;;;;;1.00;0.70;;;6.00;99.90;;;;;;4953580;29;20802;-87
2020/12/28 06:53:32;;;;;;;1.10;0.80;;;5.90;99.90;;;;;;4953530;29;20512;-87
2020/12/28 06:56:07;;;;;;;1.20;0.70;;;6.00;99.90;;;;;;4953308;29;20456;-87
2020/12/28 06:58:33;;;;;;;0.70;0.60;;;5.90;99.90;;;;;;4961326;29;20515;-87
2020/12/28 07:01:02;;;;;;;1.10;1.00;;;5.90;99.90;;;;;;4963231;29;20519;-87
2020/12/28 07:03:28;;;;;;;1.13;0.80;;;5.90;99.90;;;;;;4953340;29;20453;-87
2020/12/28 07:05:58;;;;;;;1.40;1.00;;;5.90;99.90;;;;;;4953685;28;20453;-86
2020/12/28 07:08:25;;;;;;;1.63;0.93;;;5.80;99.90;;;;;;4958156;29;20452;-87
2020/12/28 07:10:57;;;;;;;1.33;1.07;;;5.80;99.90;;;;;;4957572;29;20453;-87
2020/12/28 07:13:24;;;;;;;2.40;1.03;;;5.80;99.90;;;;;;4957054;29;20452;-87
2020/12/28 07:15:50;;;;;;;1.93;0.80;;;5.80;99.90;;;;;;4956848;29;20456;-86
2020/12/28 07:18:19;;;;;;;3.63;0.90;;;5.70;99.90;;;;;;4956921;29;20456;-86
2020/12/28 07:20:54;;;;;;;1.67;0.90;;;5.70;99.90;;;;;;4956822;29;20457;-86
2020/12/28 07:23:23;;;;;;;2.23;0.90;;;5.70;99.90;;;;;;4956895;29;20451;-88
2020/12/28 07:25:49;;;;;;;0.70;0.53;;;5.60;99.90;;;;;;4956682;29;20455;-87
2020/12/28 07:28:15;;;;;;;1.30;1.20;;;5.60;99.90;;;;;;4956811;29;20955;-88
2020/12/28 07:30:42;;;;;;;1.83;1.20;;;5.60;99.90;;;;;;4957004;29;20942;-87
2020/12/28 07:33:08;;;;;;;1.63;0.90;;;5.60;99.90;;;;;;4956667;29;20523;-87
2020/12/28 07:35:34;;;;;;;1.80;1.17;;;5.60;99.90;;;;;;4956504;29;20452;-87
2020/12/28 07:38:05;;;;;;;1.90;1.10;;;5.60;99.90;;;;;;4956610;29;20507;-86
2020/12/28 07:40:31;;;;;;;3.63;1.70;;;5.60;99.90;;;;;;4956578;29;20460;-86
2020/12/28 07:42:57;;;;;;;1.40;1.10;;;5.70;99.90;;;;;;4956632;29;20480;-87
2020/12/28 07:45:24;;;;;;;2.03;1.30;;;5.70;99.90;;;;;;4956209;29;20974;-87
2020/12/28 07:47:58;;;;;;;1.60;1.13;;;5.70;99.90;;;;;;4955848;29;20456;-88
2020/12/28 07:50:25;;;;;;;1.90;1.47;;;5.60;99.90;;;;;;4956376;29;20450;-87
2020/12/28 07:52:58;;;;;;;1.67;1.33;;;5.60;99.90;;;;;;4954549;29;20520;-87
2020/12/28 07:55:27;;;;;;;1.27;1.17;;;5.60;99.90;;;;;;4955843;29;20463;-86
2020/12/28 07:58:02;;;;;;;2.40;1.37;;;5.60;99.90;;;;;;4956170;29;20445;-87
2020/12/28 08:00:34;;;;;;;2.00;1.23;;;5.60;99.90;;;;;;4956256;29;21008;-88
2020/12/28 08:03:12;;;;;;;4.47;1.40;;;5.60;99.90;;;;;;4956345;29;20532;-86
2020/12/28 08:05:39;;;;;;;3.13;1.17;;;5.60;99.90;;;;;;4956036;29;20460;-86
2020/12/28 08:08:05;;;;;;;1.70;1.43;;;5.60;99.90;;;;;;4955805;29;20461;-86
2020/12/28 08:10:31;;;;;;;1.73;1.60;;;5.70;99.90;;;;;;4956122;29;20812;-87
2020/12/28 08:12:59;;;;;;;2.07;1.57;;;5.60;99.90;;;;;;4956064;29;20469;-87
2020/12/28 08:15:27;;;;;;;3.00;1.90;;;5.70;99.90;;;;;;4955587;29;20539;-86
2020/12/28 08:18:05;;;;;;;1.67;1.57;;;5.70;99.90;;;;;;4955373;28;20460;-87
2020/12/28 08:20:31;;;;;;;1.70;1.40;;;5.70;99.90;;;;;;4956024;28;20508;-87
2020/12/28 08:22:57;;;;;;;1.60;1.50;;;5.70;99.90;;;;;;4955840;29;20465;-87
2020/12/28 08:25:28;;;;;;;4.70;2.80;;;5.70;99.90;;;;;;4953134;28;20453;-87
2020/12/28 08:27:56;;;;;;;2.73;1.20;;;5.60;99.90;;;;;;4955802;29;20480;-87
2020/12/28 08:30:24;;;;;;;1.97;1.20;;;5.60;99.90;;;;;;4955667;28;20445;-87
2020/12/28 08:32:50;;;;;;;1.40;1.20;;;5.60;99.90;;;;;;4955659;28;20516;-87
2020/12/28 08:35:17;;;;;;;5.07;2.50;;;5.60;99.90;;;;;;4955467;28;20772;-87
2020/12/28 08:37:47;;;;;;;6.00;2.60;;;5.60;99.90;;;;;;4955757;28;20460;-87
2020/12/28 08:40:15;;;;;;;2.43;1.37;;;5.60;99.90;;;;;;4955429;28;20609;-87
2020/12/28 08:42:42;;;;;;;1.50;1.20;;;5.60;99.90;;;;;;4955427;28;21150;-86
2020/12/28 08:45:08;;;;;;;1.60;0.97;;;5.60;99.90;;;;;;4955299;28;20453;-87
2020/12/28 08:47:34;;;;;;;1.40;1.23;;;5.60;99.90;;;;;;4955427;28;20511;-87
2020/12/28 08:50:00;;;;;;;2.50;1.10;;;5.70;99.90;;;;;;4955468;28;20934;-87
2020/12/28 08:52:27;;;;;;;4.30;1.20;;;5.70;99.90;;;;;;4955256;28;20472;-87
2020/12/28 08:54:55;;;;;;;2.03;1.10;;;5.70;99.90;;;;;;4955042;28;20465;-88
2020/12/28 08:57:22;;;;;;;1.53;1.03;;;5.70;99.90;;;;;;4955321;28;20453;-88
2020/12/28 08:59:49;;;;;;;1.90;1.10;;;5.80;99.90;;;;;;4955281;28;20484;-88
2020/12/28 09:02:17;;;;;;;1.47;1.20;;;5.80;99.90;;;;;;4955592;28;20469;-87
2020/12/28 09:04:43;;;;;;;1.10;1.00;;;5.70;99.90;;;;;;4955043;28;20453;-88
2020/12/28 09:07:09;;;;;;;1.07;0.70;;;5.80;99.90;;;;;;4955089;28;20504;-86
2020/12/28 09:09:39;;;;;;;1.33;0.90;;;5.80;99.90;;;;;;4955197;28;20441;-87
2020/12/28 09:12:05;;;;;;;1.17;0.90;;;5.80;99.90;;;;;;4955284;28;20476;-87
2020/12/28 09:14:32;;;;;;;1.20;0.90;;;5.80;99.90;;;;;;4954936;28;20437;-87
2020/12/28 09:16:59;;;;;;;5.63;1.20;;;5.90;99.90;;;;;;4961367;28;20452;-87
2020/12/28 09:19:25;;;;;;;2.80;1.30;;;5.90;99.90;;;;;;4968546;28;20485;-87
2020/12/28 09:21:52;;;;;;;1.40;1.30;;;5.90;99.90;;;;;;4954787;28;20457;-88
2020/12/28 09:24:19;;;;;;;4.77;1.90;;;5.90;99.90;;;;;;4954689;28;20484;-87
2020/12/28 09:26:46;;;;;;;1.73;1.53;;;5.90;99.90;;;;;;4955027;28;20540;-87
2020/12/28 09:29:13;;;;;;;2.87;1.97;;;6.00;99.90;;;;;;4953747;28;20444;-86
2020/12/28 09:31:39;;;;;;;1.70;1.30;;;6.00;99.90;;;;;;4954488;28;20465;-86
2020/12/28 09:34:05;;;;;;;2.37;1.40;;;6.00;99.90;;;;;;4954596;28;20453;-87
2020/12/28 09:36:31;;;;;;;1.13;1.00;;;6.00;99.90;;;;;;4954329;28;20507;-85
2020/12/28 09:38:58;;;;;;;2.27;1.70;;;6.00;99.90;;;;;;4953896;28;20489;-86
2020/12/28 09:41:24;;;;;;;1.60;1.50;;;5.90;99.90;;;;;;4954024;28;20519;-85
2020/12/28 09:43:52;;;;;;;1.50;1.33;;;5.90;99.90;;;;;;4954138;28;20500;-87
2020/12/28 09:46:19;;;;;;;2.50;1.50;;;6.00;99.90;;;;;;4953903;28;20433;-86
2020/12/28 09:48:46;;;;;;;1.63;1.43;;;6.00;99.90;;;;;;4954179;28;20455;-86
2020/12/28 09:51:12;;;;;;;2.13;1.53;;;6.10;99.90;;;;;;4954065;28;20477;-86
2020/12/28 09:53:39;;;;;;;6.33;1.70;;;6.00;99.90;;;;;;4954265;28;20473;-86
2020/12/28 09:56:05;;;;;;;1.53;1.40;;;6.00;99.90;;;;;;4953730;28;20802;-86
2020/12/28 09:58:32;;;;;;;2.23;1.60;;;6.10;99.90;;;;;;4954017;28;20467;-86
2020/12/28 10:00:59;;;;;;;1.43;1.33;;;6.20;99.90;;;;;;4953728;28;20484;-86
2020/12/28 10:03:25;;;;;;;1.57;1.47;;;6.20;99.90;;;;;;4953856;28;20460;-90
2020/12/28 10:05:51;;;;;;;2.63;2.43;;;6.30;99.90;;;;;;4953912;28;20448;-85
2020/12/28 10:08:18;;;;;;;2.73;1.70;;;6.30;99.90;;;;;;4953895;28;20478;-86
2020/12/28 10:10:44;;;;;;;2.00;1.80;;;6.40;99.90;;;;;;4953953;28;20452;-86
2020/12/28 10:13:10;;;;;;;3.10;1.90;;;6.40;99.90;;;;;;4953852;28;20477;-86
2020/12/28 10:15:37;;;;;;;2.73;2.10;;;6.50;99.90;;;;;;4953389;28;20953;-86
2020/12/28 10:18:39;;;;;;;11.07;2.30;;;6.50;99.90;;;;;;4953685;28;20954;-86
2020/12/28 10:21:10;;;;;;;3.10;2.80;;;6.50;99.90;;;;;;4949834;28;20547;-85
2020/12/28 10:23:36;;;;;;;2.93;2.50;;;6.50;99.90;;;;;;4953867;28;20452;-86
2020/12/28 10:26:05;;;;;;;2.27;2.07;;;6.50;99.90;;;;;;4953523;28;20453;-86
2020/12/28 10:28:31;;;;;;;2.33;2.03;;;6.60;99.90;;;;;;4953722;28;20528;-86
2020/12/28 10:30:57;;;;;;;3.40;2.27;;;6.60;99.90;;;;;;4953656;28;20457;-86
2020/12/28 10:33:23;;;;;;;3.60;2.47;;;6.60;99.90;;;;;;4953639;28;20504;-86
2020/12/28 10:35:50;;;;;;;4.93;2.70;;;6.60;99.90;;;;;;4953342;28;20453;-86
2020/12/28 10:38:16;;;;;;;3.00;2.80;;;6.60;99.90;;;;;;4953606;28;20437;-86
2020/12/28 10:40:42;;;;;;;2.93;2.60;;;6.70;99.90;;;;;;4953338;28;20449;-85
2020/12/28 10:43:09;;;;;;;2.87;2.57;;;6.70;99.90;;;;;;4953346;28;20469;-86
2020/12/28 10:45:35;;;;;;;3.50;2.93;;;6.70;99.90;;;;;;4953291;28;20480;-86
2020/12/28 10:48:01;;;;;;;2.63;2.43;;;6.70;99.90;;;;;;4953860;28;20448;-85
2020/12/28 10:50:27;;;;;;;3.37;3.07;;;6.70;99.90;;;;;;4953357;28;20444;-85
2020/12/28 10:52:54;;;;;;;5.10;3.40;;;6.80;99.90;;;;;;4953331;28;20568;-85
2020/12/28 10:55:22;;;;;;;3.77;3.10;;;6.80;99.90;;;;;;4953392;28;20464;-85
2020/12/28 10:57:48;;;;;;;3.27;3.00;;;6.80;99.90;;;;;;4953235;28;20457;-86
2020/12/28 11:00:14;;;;;;;3.13;2.67;;;6.70;99.90;;;;;;4953341;28;20495;-87
2020/12/28 11:02:40;;;;;;;4.70;3.40;;;6.70;99.90;;;;;;4953432;28;20460;-85
2020/12/28 11:05:06;;;;;;;3.83;3.53;;;6.70;99.90;;;;;;4953133;28;20460;-88
2020/12/28 11:07:33;;;;;;;3.27;2.97;;;6.70;99.90;;;;;;4954309;28;20464;-86
2020/12/28 11:10:00;;;;;;;3.60;3.30;;;6.80;99.90;;;;;;4952977;28;20449;-84
2020/12/28 11:12:26;;;;;;;4.80;3.40;;;6.70;99.90;;;;;;4952487;28;20469;-84
2020/12/28 11:14:52;;;;;;;4.00;3.60;;;6.80;99.90;;;;;;4952473;28;20500;-85
2020/12/28 11:17:18;;;;;;;5.77;4.27;;;6.80;99.90;;;;;;4950681;28;20441;-84
2020/12/28 11:19:44;;;;;;;4.20;3.73;;;6.90;99.90;;;;;;4952257;29;20477;-86
2020/12/28 11:22:10;;;;;;;2.80;2.50;;;6.90;99.90;;;;;;4952231;29;20472;-85
2020/12/28 11:24:36;;;;;;;4.17;3.80;;;6.90;99.90;;;;;;4955874;28;20441;-86
2020/12/28 11:27:04;;;;;;;3.87;3.57;;;6.90;99.90;;;;;;4952461;29;20449;-85
2020/12/28 11:29:30;;;;;;;4.20;3.80;;;6.80;99.90;;;;;;4951874;28;20523;-85
2020/12/28 11:31:56;;;;;;;5.03;4.37;;;6.90;99.90;;;;;;4952402;28;20461;-86
2020/12/28 11:34:22;;;;;;;3.93;3.63;;;7.00;99.90;;;;;;4952228;28;20441;-86
2020/12/28 11:36:51;;;;;;;4.30;3.90;;;7.00;99.90;;;;;;4953873;29;20452;-93
2020/12/28 11:39:18;;;;;;;4.27;3.87;;;6.90;99.90;;;;;;4953907;29;20481;-86
2020/12/28 11:41:44;;;;;;;4.10;3.73;;;7.00;99.90;;;;;;4953408;29;20468;-86
2020/12/28 11:44:12;;;;;;;4.83;4.10;;;7.00;99.90;;;;;;4952208;29;20950;-88
2020/12/28 11:46:40;;;;;;;3.77;3.47;;;7.00;99.90;;;;;;4951981;28;20938;-86
2020/12/28 11:49:06;;;;;;;4.20;3.90;;;7.00;99.90;;;;;;4952085;28;20809;-86
2020/12/28 11:51:32;;;;;;;4.17;3.77;;;7.00;99.90;;;;;;4952107;28;20500;-85
2020/12/28 11:53:59;;;;;;;4.17;3.37;;;7.00;99.90;;;;;;4956233;28;20456;-85
2020/12/28 11:56:25;;;;;;;4.67;4.03;;;7.00;99.90;;;;;;4955390;28;20951;-85
2020/12/28 11:58:51;;;;;;;5.90;3.37;;;7.10;99.90;;;;;;4955585;29;20492;-85
2020/12/28 12:01:20;;;;;;;6.43;5.00;;;7.10;99.90;;;;;;4956370;28;20468;-86
2020/12/28 12:03:48;;;;;;;4.20;3.80;;;7.20;99.90;;;;;;4955447;28;20449;-86
2020/12/28 12:06:16;;;;;;;4.47;4.07;;;7.10;99.90;;;;;;4954853;28;20996;-91
2020/12/28 12:09:09;;;;;;;5.50;4.17;;;7.10;99.90;;;;;;4955781;29;20449;-88
2020/12/28 12:11:35;;;;;;;5.23;4.63;;;7.20;99.90;;;;;;4955495;28;20860;-91
2020/12/28 12:14:02;;;;;;;4.90;4.50;;;7.10;99.90;;;;;;4955468;29;20436;-91
2020/12/28 12:16:29;;;;;;;4.27;3.87;;;7.20;99.90;;;;;;4954498;28;20472;-90
2020/12/28 12:18:55;;;;;;;5.43;4.93;;;7.20;99.90;;;;;;4954560;28;20489;-90
2020/12/28 12:21:22;;;;;;;5.40;4.90;;;7.20;99.90;;;;;;4955253;28;20476;-90
2020/12/28 12:23:48;;;;;;;6.03;5.43;;;7.20;99.90;;;;;;4955373;28;20435;-88
2020/12/28 12:26:18;;;;;;;6.13;5.07;;;7.10;99.90;;;;;;4954851;29;20456;-90
2020/12/28 12:28:44;;;;;;;5.33;4.93;;;7.20;99.90;;;;;;4955293;29;20950;-90
2020/12/28 12:31:12;;;;;;;5.93;5.23;;;7.20;99.90;;;;;;4955084;28;20821;-91
2020/12/28 12:33:39;;;;;;;6.43;4.70;;;7.20;99.90;;;;;;4955312;28;20452;-91
2020/12/28 12:36:05;;;;;;;4.90;4.50;;;7.20;99.90;;;;;;4953304;28;20822;-90
2020/12/28 12:38:32;;;;;;;5.63;4.87;;;7.20;99.90;;;;;;4955193;29;20432;-90
2020/12/28 12:40:58;;;;;;;5.33;4.93;;;7.10;99.90;;;;;;4955280;28;20501;-90
2020/12/28 12:43:24;;;;;;;5.63;5.03;;;7.10;99.90;;;;;;4954965;28;20965;-89
2020/12/28 12:45:50;;;;;;;6.30;5.70;;;7.10;99.90;;;;;;4954853;29;20449;-90
2020/12/28 12:48:16;;;;;;;8.60;5.93;;;7.10;99.90;;;;;;4954757;28;20448;-90
2020/12/28 12:50:43;;;;;;;5.13;4.60;;;7.00;99.90;;;;;;4954943;28;20946;-92
2020/12/28 12:53:10;;;;;;;7.70;4.90;;;6.80;99.90;;;;;;4954724;28;20465;-91
2020/12/28 12:55:39;;;;;;;8.93;4.20;;;6.70;99.90;;;;;;4954629;28;20445;-90
2020/12/28 12:58:05;;;;;;;4.23;3.03;;;6.60;99.90;;;;;;4953039;28;20430;-89
2020/12/28 13:00:31;;;;;;;4.30;3.50;;;6.50;99.90;;;;;;4954979;29;20565;-89
2020/12/28 13:02:57;;;;;;;5.10;3.90;;;6.50;99.90;;;;;;4953949;28;20468;-90
2020/12/28 13:05:24;;;;;;;2.90;2.70;;;6.50;99.90;;;;;;4954064;28;20495;-91
2020/12/28 13:07:51;;;;;;;4.70;4.30;;;6.40;99.90;;;;;;4954503;28;20448;-89